createdAt,value
2019-03-19T00:01:51.354Z,4.25
2019-03-19T00:04:21.539Z,4.97
2019-03-19T00:06:51.799Z,4.60
2019-03-19T00:09:21.976Z,4.60
2019-03-19T00:11:52.148Z,4.67
2019-03-19T00:14:22.359Z,4.97
2019-03-19T00:16:52.553Z,5.03
2019-03-19T00:19:22.739Z,5.35
2019-03-19T00:21:52.925Z,5.25
2019-03-19T00:24:23.108Z,5.00
2019-03-19T00:26:53.352Z,4.90
2019-03-19T00:29:23.559Z,5.33
2019-03-19T00:31:53.802Z,4.72
2019-03-19T00:34:23.969Z,5.67
2019-03-19T00:36:54.164Z,5.12
2019-03-19T00:39:24.368Z,5.33
2019-03-19T00:41:54.688Z,5.08
2019-03-19T00:44:24.967Z,5.35
2019-03-19T00:46:55.144Z,4.60
2019-03-19T00:49:25.372Z,4.80
2019-03-19T00:51:57.133Z,4.62
2019-03-19T00:54:27.344Z,4.83
2019-03-19T00:56:57.542Z,4.62
2019-03-19T00:59:27.720Z,4.87
2019-03-19T01:01:58.007Z,4.92
2019-03-19T01:04:28.208Z,4.60
2019-03-19T01:06:58.386Z,4.65
2019-03-19T01:09:28.616Z,4.80
2019-03-19T01:11:58.939Z,4.67
2019-03-19T01:14:29.156Z,4.40
2019-03-19T01:16:59.352Z,4.92
2019-03-19T01:19:29.777Z,5.65
2019-03-19T01:21:59.958Z,5.05
2019-03-19T01:24:31.688Z,4.33
2019-03-19T01:27:01.910Z,4.75
2019-03-19T01:29:32.092Z,4.72
2019-03-19T01:32:02.269Z,4.70
2019-03-19T01:34:32.772Z,4.80
2019-03-19T01:37:02.965Z,5.08
2019-03-19T01:39:33.154Z,4.20
2019-03-19T01:42:03.381Z,4.30
2019-03-19T01:44:35.196Z,4.60
2019-03-19T01:47:05.392Z,4.60
2019-03-19T01:49:35.627Z,5.10
2019-03-19T01:52:05.867Z,4.45
2019-03-19T01:54:36.080Z,4.47
2019-03-19T01:57:06.285Z,4.47
2019-03-19T01:59:36.474Z,4.62
2019-03-19T02:02:06.729Z,4.22
2019-03-19T02:04:37.047Z,4.70
2019-03-19T02:07:07.310Z,4.75
2019-03-19T02:09:37.556Z,4.75
2019-03-19T02:12:07.789Z,4.25
2019-03-19T02:14:37.992Z,4.33
2019-03-19T02:17:08.168Z,4.62
2019-03-19T02:19:38.458Z,4.33
2019-03-19T02:22:10.217Z,4.30
2019-03-19T02:24:40.452Z,3.98
2019-03-19T02:27:10.699Z,4.15
2019-03-19T02:29:40.896Z,3.90
2019-03-19T02:32:11.124Z,4.55
2019-03-19T02:34:41.375Z,3.90
2019-03-19T02:37:13.170Z,3.70
2019-03-19T02:39:43.364Z,3.80
2019-03-19T02:42:13.568Z,3.80
2019-03-19T02:44:43.800Z,4.72
2019-03-19T02:47:14.001Z,3.70
2019-03-19T02:49:44.384Z,3.40
2019-03-19T02:52:14.588Z,3.33
2019-03-19T02:54:44.896Z,3.42
2019-03-19T02:57:15.089Z,3.25
2019-03-19T02:59:45.316Z,3.20
2019-03-19T03:02:17.076Z,3.27
2019-03-19T03:04:47.323Z,2.75
2019-03-19T03:07:17.538Z,3.35
2019-03-19T03:09:47.715Z,2.98
2019-03-19T03:12:17.987Z,2.85
2019-03-19T03:14:48.337Z,2.55
2019-03-19T03:17:18.543Z,2.90
2019-03-19T03:19:48.851Z,2.95
2019-03-19T03:22:19.040Z,3.05
2019-03-19T03:24:49.312Z,3.17
2019-03-19T03:27:19.596Z,2.85
2019-03-19T03:29:51.553Z,2.70
2019-03-19T03:32:23.357Z,2.92
2019-03-19T03:34:53.606Z,3.10
2019-03-19T03:37:23.825Z,2.90
2019-03-19T03:39:54.017Z,3.12
2019-03-19T03:42:24.194Z,3.10
2019-03-19T03:44:54.493Z,3.20
2019-03-19T03:47:24.682Z,2.75
2019-03-19T03:49:54.992Z,3.00
2019-03-19T03:52:25.197Z,3.27
2019-03-19T03:54:57.028Z,3.10
2019-03-19T03:57:27.284Z,3.20
2019-03-19T03:59:57.552Z,3.25
2019-03-19T04:02:27.826Z,3.15
2019-03-19T04:05:00.807Z,3.33
2019-03-19T04:07:31.067Z,3.72
2019-03-19T04:10:01.238Z,3.20
2019-03-19T04:12:31.814Z,3.35
2019-03-19T04:15:02.075Z,3.45
2019-03-19T04:17:32.267Z,3.37
2019-03-19T04:20:02.549Z,3.58
2019-03-19T04:22:32.921Z,3.80
2019-03-19T04:25:03.299Z,3.20
2019-03-19T04:27:33.478Z,4.05
2019-03-19T04:30:05.357Z,3.30
2019-03-19T04:32:35.530Z,3.33
2019-03-19T04:35:06.708Z,3.35
2019-03-19T04:37:37.111Z,3.85
2019-03-19T04:40:12.261Z,3.60
2019-03-19T04:42:42.445Z,3.83
2019-03-19T04:45:14.796Z,3.65
2019-03-19T04:47:45.103Z,3.77
2019-03-19T04:50:16.111Z,3.80
2019-03-19T04:52:46.343Z,3.83
2019-03-19T04:55:17.071Z,3.75
2019-03-19T04:57:47.305Z,3.83
2019-03-19T05:00:18.328Z,4.00
2019-03-19T05:02:48.672Z,3.90
2019-03-19T05:05:19.733Z,3.77
2019-03-19T05:07:51.592Z,4.55
2019-03-19T05:10:22.922Z,4.30
2019-03-19T05:12:53.174Z,3.77
2019-03-19T05:15:23.401Z,4.20
2019-03-19T05:17:53.616Z,4.87
2019-03-19T05:20:23.785Z,3.90
2019-03-19T05:22:54.036Z,3.83
2019-03-19T05:25:24.330Z,4.12
2019-03-19T05:27:54.577Z,3.92
2019-03-19T05:30:24.770Z,4.10
2019-03-19T05:32:54.951Z,4.40
2019-03-19T05:35:25.167Z,4.40
2019-03-19T05:37:55.431Z,4.53
2019-03-19T05:40:25.696Z,4.60
2019-03-19T05:42:55.977Z,4.47
2019-03-19T05:45:26.273Z,4.65
2019-03-19T05:47:56.450Z,4.53
2019-03-19T05:50:26.804Z,4.95
2019-03-19T05:52:56.984Z,5.22
2019-03-19T05:55:27.200Z,4.87
2019-03-19T05:57:57.417Z,4.92
2019-03-19T06:00:30.742Z,4.75
2019-03-19T06:03:00.953Z,4.72
2019-03-19T06:05:31.127Z,4.92
2019-03-19T06:08:01.324Z,4.40
2019-03-19T06:10:31.540Z,4.87
2019-03-19T06:13:01.724Z,4.70
2019-03-19T06:15:31.963Z,4.67
2019-03-19T06:18:02.148Z,4.08
2019-03-19T06:20:32.360Z,4.37
2019-03-19T06:23:02.755Z,3.92
2019-03-19T06:25:32.992Z,4.03
2019-03-19T06:28:03.338Z,4.20
2019-03-19T06:30:33.558Z,3.87
2019-03-19T06:33:03.750Z,5.00
2019-03-19T06:35:34.019Z,4.60
2019-03-19T06:38:04.556Z,4.72
2019-03-19T06:40:34.863Z,4.65
2019-03-19T06:43:05.043Z,4.25
2019-03-19T06:45:35.246Z,4.45
2019-03-19T06:48:05.452Z,4.50
2019-03-19T06:50:44.643Z,4.47
2019-03-19T06:53:07.606Z,4.20
2019-03-19T06:55:37.883Z,4.40
2019-03-19T06:58:11.355Z,4.60
2019-03-19T07:00:40.223Z,4.67
2019-03-19T07:03:10.453Z,3.85
2019-03-19T07:05:40.672Z,4.05
2019-03-19T07:08:10.900Z,4.00
2019-03-19T07:10:41.077Z,3.80
2019-03-19T07:13:11.303Z,4.28
2019-03-19T07:15:41.586Z,4.12
2019-03-19T07:18:11.784Z,4.12
2019-03-19T07:20:42.118Z,4.33
2019-03-19T07:23:14.756Z,4.47
2019-03-19T07:25:44.946Z,4.20
2019-03-19T07:28:21.938Z,4.25
2019-03-19T07:30:47.093Z,4.25
2019-03-19T07:33:17.283Z,4.33
2019-03-19T07:35:50.581Z,4.50
2019-03-19T07:38:20.828Z,4.60
2019-03-19T07:40:51.027Z,4.30
2019-03-19T07:43:21.255Z,3.87
2019-03-19T07:45:53.057Z,4.58
2019-03-19T07:48:23.239Z,4.75
2019-03-19T07:50:53.464Z,4.72
2019-03-19T07:53:23.676Z,4.20
2019-03-19T07:55:53.885Z,3.90
2019-03-19T07:58:35.738Z,4.17
2019-03-19T08:00:56.044Z,4.65
2019-03-19T08:03:26.258Z,4.37
2019-03-19T08:05:56.448Z,4.58
2019-03-19T08:08:26.682Z,4.78
2019-03-19T08:10:56.969Z,5.08
2019-03-19T08:13:27.149Z,5.37
2019-03-19T08:15:57.382Z,4.83
2019-03-19T08:18:27.612Z,4.70
2019-03-19T08:20:57.781Z,4.92
2019-03-19T08:23:27.993Z,4.35
2019-03-19T08:25:58.256Z,4.30
2019-03-19T08:28:28.424Z,4.70
2019-03-19T08:30:58.664Z,5.62
2019-03-19T08:33:29.043Z,5.70
2019-03-19T08:36:08.953Z,6.05
2019-03-19T08:38:31.307Z,6.58
2019-03-19T08:41:01.659Z,6.90
2019-03-19T08:43:31.851Z,6.08
2019-03-19T08:46:03.636Z,6.05
2019-03-19T08:48:33.829Z,6.72
2019-03-19T08:51:04.055Z,6.25
2019-03-19T08:53:34.383Z,6.05
2019-03-19T08:56:04.647Z,5.92
2019-03-19T08:58:35.022Z,6.37
2019-03-19T09:01:05.263Z,6.03
2019-03-19T09:03:35.443Z,6.10
2019-03-19T09:06:05.676Z,5.95
2019-03-19T09:08:35.851Z,6.12
2019-03-19T09:11:06.167Z,6.20
2019-03-19T09:13:36.483Z,6.95
2019-03-19T09:16:07.562Z,7.67
2019-03-19T09:18:37.761Z,6.20
2019-03-19T09:21:08.052Z,6.87
2019-03-19T09:23:40.629Z,6.37
2019-03-19T09:26:10.904Z,6.42
2019-03-19T09:28:41.093Z,5.70
2019-03-19T09:31:11.296Z,7.55
2019-03-19T09:33:43.111Z,5.80
2019-03-19T09:36:13.282Z,6.28
2019-03-19T09:38:43.498Z,5.95
2019-03-19T09:41:13.713Z,6.20
2019-03-19T09:43:43.899Z,6.00
2019-03-19T09:46:14.116Z,6.00
2019-03-19T09:48:44.351Z,5.80
2019-03-19T09:51:14.556Z,6.00
2019-03-19T09:53:44.762Z,7.55
2019-03-19T09:56:14.972Z,6.30
2019-03-19T09:58:45.166Z,7.28
2019-03-19T10:01:15.385Z,6.20
2019-03-19T10:03:45.584Z,6.60
2019-03-19T10:06:15.800Z,6.37
2019-03-19T10:08:47.592Z,6.08
2019-03-19T10:11:17.988Z,6.87
2019-03-19T10:13:48.169Z,6.78
2019-03-19T10:16:18.386Z,6.65
2019-03-19T10:18:48.633Z,6.12
2019-03-19T10:21:18.923Z,6.05
2019-03-19T10:23:49.116Z,6.80
2019-03-19T10:26:19.340Z,5.85
2019-03-19T10:28:49.582Z,7.05
2019-03-19T10:31:19.987Z,6.92
2019-03-19T10:33:50.168Z,6.50
2019-03-19T10:36:20.364Z,6.65
2019-03-19T10:38:50.591Z,6.80
2019-03-19T10:41:20.891Z,5.35
2019-03-19T10:43:51.085Z,4.97
2019-03-19T10:46:21.452Z,6.00
2019-03-19T10:48:53.210Z,6.60
2019-03-19T10:51:25.003Z,5.72
2019-03-19T10:53:55.218Z,6.40
2019-03-19T10:56:25.466Z,7.42
2019-03-19T10:58:55.693Z,6.12
2019-03-19T11:01:25.883Z,6.97
2019-03-19T11:03:56.112Z,6.22
2019-03-19T11:06:26.300Z,7.12
2019-03-19T11:08:56.513Z,6.37
2019-03-19T11:11:26.868Z,6.55
2019-03-19T11:13:57.175Z,6.03
2019-03-19T11:16:27.415Z,7.80
2019-03-19T11:18:57.634Z,8.00
2019-03-19T11:21:27.844Z,7.10
2019-03-19T11:23:59.636Z,6.10
2019-03-19T11:26:29.861Z,6.47
2019-03-19T11:29:00.060Z,6.97
2019-03-19T11:31:30.380Z,5.97
2019-03-19T11:34:00.566Z,6.28
2019-03-19T11:36:30.863Z,4.83
2019-03-19T11:39:01.039Z,5.00
2019-03-19T11:41:31.243Z,4.15
2019-03-19T11:44:01.451Z,5.25
2019-03-19T11:46:31.669Z,5.12
2019-03-19T11:49:01.884Z,5.58
2019-03-19T11:51:32.098Z,4.55
2019-03-19T11:54:02.302Z,4.60
2019-03-19T11:56:32.589Z,2.95
2019-03-19T11:59:02.848Z,2.42
2019-03-19T12:01:33.161Z,2.92
2019-03-19T12:04:03.477Z,3.47
2019-03-19T12:06:34.027Z,3.47
2019-03-19T12:09:05.624Z,3.77
2019-03-19T12:11:36.798Z,3.72
2019-03-19T12:14:08.569Z,3.90
2019-03-19T12:16:38.848Z,4.22
2019-03-19T12:19:09.064Z,3.87
2019-03-19T12:21:39.268Z,3.98
2019-03-19T12:24:09.487Z,12.30
2019-03-19T12:26:39.710Z,4.97
2019-03-19T12:29:09.892Z,4.12
2019-03-19T12:31:40.108Z,5.00
2019-03-19T12:34:10.322Z,3.45
2019-03-19T12:36:40.517Z,3.77
2019-03-19T12:39:10.747Z,3.20
2019-03-19T12:41:41.072Z,3.55
2019-03-19T12:44:11.316Z,3.95
2019-03-19T12:46:41.613Z,2.30
2019-03-19T12:49:11.848Z,2.80
2019-03-19T12:51:42.128Z,2.50
2019-03-19T12:54:13.262Z,2.75
2019-03-19T12:56:43.136Z,3.67
2019-03-19T12:59:20.086Z,4.78
2019-03-19T13:01:46.835Z,4.37
2019-03-19T13:04:17.114Z,4.03
2019-03-19T13:06:47.283Z,3.87
2019-03-19T13:09:17.504Z,3.45
2019-03-19T13:11:47.690Z,3.95
2019-03-19T13:14:17.932Z,3.92
2019-03-19T13:16:48.112Z,3.92
2019-03-19T13:19:18.293Z,5.20
2019-03-19T13:21:48.516Z,3.62
2019-03-19T13:24:18.711Z,4.35
2019-03-19T13:26:48.912Z,3.47
2019-03-19T13:29:19.146Z,3.72
2019-03-19T13:31:49.330Z,3.30
2019-03-19T13:34:19.594Z,4.03
2019-03-19T13:36:50.092Z,3.85
2019-03-19T13:39:20.381Z,4.40
2019-03-19T13:41:50.575Z,4.78
2019-03-19T13:44:20.763Z,4.08
2019-03-19T13:46:51.083Z,2.98
2019-03-19T13:49:21.278Z,3.98
2019-03-19T13:51:53.079Z,3.17
2019-03-19T13:54:23.256Z,3.70
2019-03-19T13:56:55.041Z,3.45
2019-03-19T13:59:25.281Z,4.75
2019-03-19T14:01:55.481Z,3.58
2019-03-19T14:04:25.697Z,4.00
2019-03-19T14:06:55.895Z,3.08
2019-03-19T14:09:26.108Z,4.00
2019-03-19T14:11:56.299Z,3.08
2019-03-19T14:14:26.899Z,3.05
2019-03-19T14:16:57.080Z,10.60
2019-03-19T14:19:27.324Z,4.42
2019-03-19T14:21:57.510Z,5.70
2019-03-19T14:24:27.840Z,3.50
2019-03-19T14:26:58.111Z,3.42
2019-03-19T14:29:29.960Z,3.20
2019-03-19T14:32:03.953Z,3.17
2019-03-19T14:34:33.619Z,4.20
2019-03-19T14:37:03.876Z,3.87
2019-03-19T14:39:34.096Z,3.87
2019-03-19T14:42:04.308Z,3.47
2019-03-19T14:44:34.549Z,4.42
2019-03-19T14:47:04.880Z,3.30
2019-03-19T14:49:46.041Z,2.30
2019-03-19T14:52:06.961Z,3.70
2019-03-19T14:54:37.172Z,2.65
2019-03-19T14:57:07.380Z,3.22
2019-03-19T14:59:37.579Z,3.22
2019-03-19T15:02:07.767Z,2.72
2019-03-19T15:04:37.989Z,2.92
2019-03-19T15:07:08.184Z,2.87
2019-03-19T15:09:40.798Z,3.02
2019-03-19T15:12:11.021Z,2.65
2019-03-19T15:14:41.204Z,3.60
2019-03-19T15:17:11.416Z,3.40
2019-03-19T15:19:43.275Z,2.87
2019-03-19T15:22:13.512Z,3.52
2019-03-19T15:24:46.802Z,2.95
2019-03-19T15:27:17.077Z,3.55
2019-03-19T15:29:47.294Z,4.30
2019-03-19T15:32:17.495Z,3.85
2019-03-19T15:34:49.276Z,2.92
2019-03-19T15:37:19.507Z,2.92
2019-03-19T15:39:49.762Z,3.30
2019-03-19T15:42:19.984Z,6.60
2019-03-19T15:44:50.172Z,3.83
2019-03-19T15:47:20.533Z,3.40
2019-03-19T15:49:50.896Z,3.10
2019-03-19T15:52:21.103Z,3.22
2019-03-19T15:54:51.324Z,2.70
2019-03-19T15:57:21.565Z,2.92
2019-03-19T15:59:51.807Z,3.02
2019-03-19T16:02:22.015Z,3.70
2019-03-19T16:04:52.230Z,3.00
2019-03-19T16:07:22.444Z,3.42
2019-03-19T16:09:54.256Z,3.45
2019-03-19T16:12:24.452Z,3.72
2019-03-19T16:14:54.682Z,3.87
2019-03-19T16:17:24.873Z,4.15
2019-03-19T16:19:55.092Z,3.45
2019-03-19T16:22:25.287Z,3.25
2019-03-19T16:24:57.074Z,3.30
2019-03-19T16:27:27.280Z,3.70
2019-03-19T16:29:57.586Z,3.30
2019-03-19T16:32:28.145Z,3.33
2019-03-19T16:34:58.392Z,3.25
2019-03-19T16:37:28.592Z,3.60
2019-03-19T16:39:58.831Z,3.20
2019-03-19T16:42:29.163Z,3.90
2019-03-19T16:44:59.358Z,3.12
2019-03-19T16:47:29.573Z,4.58
2019-03-19T16:49:59.795Z,3.85
2019-03-19T16:52:30.013Z,3.52
2019-03-19T16:55:01.089Z,3.50
2019-03-19T16:57:32.834Z,3.80
2019-03-19T17:00:03.272Z,3.05
2019-03-19T17:02:33.482Z,3.90
2019-03-19T17:05:04.810Z,3.40
2019-03-19T17:07:35.073Z,3.45
2019-03-19T17:10:14.253Z,3.58
2019-03-19T17:12:44.437Z,3.40
2019-03-19T17:15:18.415Z,3.40
2019-03-19T17:17:48.717Z,4.03
2019-03-19T17:20:19.432Z,3.58
2019-03-19T17:22:49.719Z,3.37
2019-03-19T17:25:21.216Z,3.77
2019-03-19T17:27:51.392Z,4.00
2019-03-19T17:30:27.909Z,3.65
2019-03-19T17:32:59.654Z,3.77
2019-03-19T17:35:29.871Z,3.50
2019-03-19T17:38:00.048Z,4.00
2019-03-19T17:40:40.612Z,3.30
2019-03-19T17:43:03.099Z,3.55
2019-03-19T17:45:34.849Z,3.12
2019-03-19T17:48:15.448Z,3.47
2019-03-19T17:50:39.427Z,3.70
2019-03-19T17:53:09.650Z,3.70
2019-03-19T17:55:39.837Z,3.50
2019-03-19T17:58:11.748Z,3.50
2019-03-19T18:00:52.395Z,3.20
2019-03-19T18:03:22.604Z,3.17
2019-03-19T18:05:52.795Z,3.62
2019-03-19T18:08:23.012Z,3.52
2019-03-19T18:10:54.948Z,3.12
2019-03-19T18:13:26.831Z,3.52
2019-03-19T18:15:57.170Z,3.50
2019-03-19T18:18:27.464Z,4.30
2019-03-19T18:20:57.772Z,3.85
2019-03-19T18:23:29.504Z,3.90
2019-03-19T18:26:01.496Z,3.98
2019-03-19T18:28:31.730Z,3.50
2019-03-19T18:31:01.970Z,4.58
2019-03-19T18:33:32.280Z,3.80
2019-03-19T18:36:02.565Z,4.10
2019-03-19T18:38:32.787Z,4.10
2019-03-19T18:41:04.539Z,3.90
2019-03-19T18:43:34.764Z,4.35
2019-03-19T18:46:05.023Z,4.65
2019-03-19T18:48:35.312Z,4.70
2019-03-19T18:51:05.543Z,5.12
2019-03-19T18:53:35.786Z,4.90
2019-03-19T18:56:06.025Z,4.22
2019-03-19T18:58:36.210Z,4.55
2019-03-19T19:01:06.207Z,4.60
2019-03-19T19:03:36.497Z,5.28
2019-03-19T19:06:06.712Z,5.25
2019-03-19T19:08:38.596Z,5.10
2019-03-19T19:11:08.811Z,5.50
2019-03-19T19:13:39.050Z,5.25
2019-03-19T19:16:09.278Z,5.40
2019-03-19T19:18:39.564Z,5.55
2019-03-19T19:21:09.867Z,5.78
2019-03-19T19:23:40.110Z,5.58
2019-03-19T19:26:10.442Z,5.05
2019-03-19T19:28:41.496Z,5.62
2019-03-19T19:31:11.783Z,5.65
2019-03-19T19:33:42.086Z,4.70
2019-03-19T19:36:12.356Z,4.67
2019-03-19T19:38:42.634Z,5.05
2019-03-19T19:41:13.630Z,4.90
2019-03-19T19:43:43.859Z,4.87
2019-03-19T19:46:14.036Z,4.83
2019-03-19T19:48:44.233Z,5.55
2019-03-19T19:51:14.488Z,5.40
2019-03-19T19:53:44.976Z,5.75
2019-03-19T19:56:15.339Z,5.65
2019-03-19T19:58:45.660Z,6.35
2019-03-19T20:01:15.957Z,6.20
2019-03-19T20:03:46.229Z,6.65
2019-03-19T20:06:18.921Z,6.72
2019-03-19T20:08:49.207Z,7.12
2019-03-19T20:11:19.453Z,7.05
2019-03-19T20:13:49.791Z,6.22
2019-03-19T20:16:20.067Z,7.45
2019-03-19T20:18:50.276Z,6.22
2019-03-19T20:21:22.188Z,5.70
2019-03-19T20:23:52.570Z,5.78
2019-03-19T20:26:24.399Z,5.30
2019-03-19T20:28:54.695Z,4.47
2019-03-19T20:31:24.949Z,4.97
2019-03-19T20:33:55.239Z,5.70
2019-03-19T20:36:25.577Z,4.58
2019-03-19T20:38:58.376Z,4.45
2019-03-19T20:41:28.572Z,4.78
2019-03-19T20:43:59.103Z,4.33
2019-03-19T20:46:30.885Z,4.05
2019-03-19T20:49:01.081Z,4.62
2019-03-19T20:51:31.302Z,4.20
2019-03-19T20:54:01.587Z,3.30
2019-03-19T20:56:31.876Z,3.85
2019-03-19T20:59:02.107Z,3.08
2019-03-19T21:01:32.289Z,3.15
2019-03-19T21:04:02.517Z,2.83
2019-03-19T21:06:32.873Z,3.75
2019-03-19T21:09:03.311Z,3.52
2019-03-19T21:11:33.510Z,3.25
2019-03-19T21:14:03.728Z,3.22
2019-03-19T21:16:33.971Z,3.22
2019-03-19T21:19:04.513Z,2.90
2019-03-19T21:21:34.701Z,3.45
2019-03-19T21:24:04.920Z,3.05
2019-03-19T21:26:35.102Z,3.92
2019-03-19T21:29:05.328Z,3.83
2019-03-19T21:31:35.549Z,3.37
2019-03-19T21:34:05.752Z,3.98
2019-03-19T21:36:36.039Z,3.60
2019-03-19T21:39:07.570Z,4.80
2019-03-19T21:41:38.244Z,4.03
2019-03-19T21:44:08.476Z,4.33
2019-03-19T21:46:40.315Z,3.65
2019-03-19T21:49:10.549Z,4.12
2019-03-19T21:51:40.844Z,3.15
2019-03-19T21:54:11.047Z,3.50
2019-03-19T21:56:41.261Z,3.75
2019-03-19T21:59:11.487Z,3.40
2019-03-19T22:01:41.841Z,3.55
2019-03-19T22:04:12.103Z,3.35
2019-03-19T22:06:44.150Z,4.00
2019-03-19T22:09:14.388Z,3.85
2019-03-19T22:11:44.842Z,3.70
2019-03-19T22:14:15.147Z,3.85
2019-03-19T22:16:45.359Z,3.50
2019-03-19T22:19:15.569Z,3.55
2019-03-19T22:21:45.797Z,4.00
2019-03-19T22:24:16.080Z,4.17
2019-03-19T22:26:46.330Z,3.70
2019-03-19T22:29:16.512Z,3.30
2019-03-19T22:31:46.752Z,3.40
2019-03-19T22:34:17.011Z,3.50
2019-03-19T22:36:48.807Z,3.10
2019-03-19T22:39:19.045Z,3.80
2019-03-19T22:41:49.297Z,4.10
2019-03-19T22:44:19.517Z,3.65
2019-03-19T22:46:49.698Z,3.33
2019-03-19T22:49:19.961Z,3.70
2019-03-19T22:51:50.509Z,2.87
2019-03-19T22:54:20.744Z,3.40
2019-03-19T22:56:50.956Z,2.70
2019-03-19T22:59:22.864Z,3.72
2019-03-19T23:01:53.139Z,3.10
2019-03-19T23:04:27.423Z,3.37
2019-03-19T23:06:55.387Z,2.55
2019-03-19T23:09:27.177Z,3.05
2019-03-19T23:11:57.385Z,3.00
2019-03-19T23:14:27.616Z,2.90
2019-03-19T23:16:57.839Z,3.15
2019-03-19T23:19:28.028Z,3.92
2019-03-19T23:21:58.237Z,3.17
2019-03-19T23:24:28.448Z,2.70
2019-03-19T23:26:58.616Z,3.12
2019-03-19T23:29:28.824Z,3.55
2019-03-19T23:31:59.022Z,3.75
2019-03-19T23:34:38.424Z,3.72
2019-03-19T23:37:06.321Z,3.12
2019-03-19T23:39:36.544Z,3.95
2019-03-19T23:42:06.894Z,3.20
2019-03-19T23:44:37.144Z,3.22
2019-03-19T23:47:07.321Z,3.33
2019-03-19T23:49:39.115Z,3.17
2019-03-19T23:52:10.910Z,2.60
2019-03-19T23:54:41.081Z,2.65
2019-03-19T23:57:11.287Z,3.42
2019-03-19T23:59:41.600Z,3.05
